Time;durP1;ratioP1;P1;durP2;ratioP2;P2;SDS_P1;SDS_P2;PMS_P1;PMS_P2;Temp;Humidity;BMP_temperature;BMP_pressure;BME280_temperature;BME280_humidity;BME280_pressure;Samples;Min_cycle;Max_cycle;Signal;HPM_P1;HPM_P2
2021/07/04 00:01:07;;;;;;;2.38;1.85;;;;;;;20.22;51.15;94462.78;2991204;39;20063;-80
2021/07/04 00:03:09;;;;;;;3.28;2.25;;;;;;;20.21;51.19;94469.13;2991607;39;20043;-81
2021/07/04 00:05:15;;;;;;;2.92;1.92;;;;;;;20.22;51.27;94462.78;2990237;39;20470;-80
2021/07/04 00:07:17;;;;;;;2.92;2.33;;;;;;;20.21;51.25;94461.13;2987348;39;20493;-81
2021/07/04 00:09:18;;;;;;;3.28;2.20;;;;;;;20.23;51.14;94457.22;2990426;39;20133;-81
2021/07/04 00:11:20;;;;;;;2.85;2.10;;;;;;;20.21;51.20;94455.81;2995684;39;20098;-80
2021/07/04 00:13:22;;;;;;;2.50;2.30;;;;;;;20.22;51.21;94460.91;2989596;39;20071;-81
2021/07/04 00:15:26;;;;;;;2.45;2.13;;;;;;;20.13;51.30;94456.13;2995619;39;20067;-81
2021/07/04 00:17:27;;;;;;;3.67;2.10;;;;;;;20.02;51.59;94452.38;2983871;39;20051;-81
2021/07/04 00:19:29;;;;;;;2.50;2.08;;;;;;;20.03;51.42;94444.19;2994418;39;20062;-81
2021/07/04 00:21:31;;;;;;;3.30;2.20;;;;;;;20.04;51.67;94445.78;2994535;39;20058;-81
2021/07/04 00:23:33;;;;;;;3.10;2.10;;;;;;;20.01;51.74;94446.25;2993471;39;20415;-79
2021/07/04 00:25:35;;;;;;;2.45;2.00;;;;;;;19.96;51.64;94443.47;2985711;39;20055;-82
2021/07/04 00:27:37;;;;;;;3.97;2.05;;;;;;;19.93;52.07;94441.22;2982022;39;20052;-81
2021/07/04 00:29:39;;;;;;;3.08;2.35;;;;;;;19.93;51.81;94441.22;2981935;39;20088;-81
2021/07/04 00:31:40;;;;;;;3.15;2.28;;;;;;;20.00;51.92;94441.16;2991545;39;20059;-80
2021/07/04 00:33:42;;;;;;;5.45;2.25;;;;;;;19.88;52.09;94441.09;2993474;39;20084;-80
2021/07/04 00:35:44;;;;;;;2.67;2.10;;;;;;;19.80;52.37;94436.06;2995460;39;20050;-70
2021/07/04 00:38:17;;;;;;;2.30;2.05;;;;;;;19.79;52.51;94440.59;2992495;39;20067;-69
2021/07/04 00:40:19;;;;;;;3.72;2.22;;;;;;;19.78;52.44;94443.47;2987753;39;20066;-70
2021/07/04 00:42:21;;;;;;;3.72;2.10;;;;;;;19.79;52.36;94431.81;2991924;39;20397;-69
2021/07/04 00:44:23;;;;;;;3.10;2.28;;;;;;;19.76;52.66;94434.91;2974890;39;20140;-70
2021/07/04 00:46:26;;;;;;;2.83;2.00;;;;;;;19.79;52.54;94424.63;2982401;39;20505;-69
2021/07/04 00:48:29;;;;;;;3.42;2.40;;;;;;;19.79;52.49;94426.50;2982993;39;20164;-68
2021/07/04 00:50:31;;;;;;;3.22;2.08;;;;;;;19.84;52.40;94423.97;2983327;39;20069;-70
2021/07/04 00:52:34;;;;;;;2.42;1.80;;;;;;;19.82;52.55;94431.34;2983168;39;20120;-69
2021/07/04 00:54:36;;;;;;;3.88;2.35;;;;;;;19.86;52.45;94423.75;2982886;39;20055;-69
2021/07/04 00:56:38;;;;;;;3.10;1.98;;;;;;;19.81;52.60;94438.53;2990160;39;20059;-68
2021/07/04 00:58:40;;;;;;;2.60;2.17;;;;;;;19.77;52.80;94439.19;2990285;39;20142;-69
2021/07/04 01:00:42;;;;;;;2.40;2.10;;;;;;;19.86;52.46;94439.69;2992099;39;20069;-68
2021/07/04 01:02:44;;;;;;;3.15;2.00;;;;;;;19.77;52.40;94437.34;2990127;39;20063;-69
2021/07/04 01:04:46;;;;;;;2.67;2.13;;;;;;;19.70;52.66;94439.25;2993015;39;20070;-69
2021/07/04 01:06:48;;;;;;;2.72;2.00;;;;;;;19.72;52.66;94429.19;2983229;39;20209;-69
2021/07/04 01:08:49;;;;;;;3.90;2.30;;;;;;;19.78;52.36;94430.16;2993217;39;20145;-69
2021/07/04 01:10:51;;;;;;;5.35;2.38;;;;;;;19.83;52.24;94438.28;2982920;39;20348;-69
2021/07/04 01:12:55;;;;;;;4.25;2.13;;;;;;;19.71;52.67;94440.06;2979101;39;20077;-69
2021/07/04 01:14:56;;;;;;;3.17;2.03;;;;;;;19.66;52.94;94443.38;2982087;39;20120;-69
2021/07/04 01:16:58;;;;;;;2.90;2.60;;;;;;;19.68;53.08;94437.81;2989785;39;20066;-69
2021/07/04 01:19:01;;;;;;;4.55;2.28;;;;;;;19.67;52.89;94446.84;2989997;39;20089;-69
2021/07/04 01:21:04;;;;;;;3.42;2.22;;;;;;;19.60;53.49;94445.06;2992937;39;20051;-69
2021/07/04 01:23:16;;;;;;;4.05;2.45;;;;;;;19.59;53.54;94446.06;2990692;39;20051;-69
2021/07/04 01:25:18;;;;;;;3.22;2.22;;;;;;;19.58;53.54;94439.16;2992296;39;20097;-70
2021/07/04 01:27:20;;;;;;;3.17;2.47;;;;;;;19.66;53.31;94432.75;2983243;39;20043;-69
2021/07/04 01:29:21;;;;;;;2.95;2.40;;;;;;;19.64;53.56;94430.28;2983339;39;20047;-69
2021/07/04 01:31:45;;;;;;;6.20;2.50;;;;;;;19.57;53.61;94429.53;2981867;39;20270;-69
2021/07/04 01:33:49;;;;;;;3.13;2.28;;;;;;;19.61;53.54;94430.72;2987909;39;20257;-70
2021/07/04 01:35:50;;;;;;;3.22;2.42;;;;;;;19.68;53.43;94419.22;2991554;39;20051;-69
2021/07/04 01:37:53;;;;;;;3.03;2.20;;;;;;;19.72;53.06;94431.84;2983216;39;20215;-69
2021/07/04 01:39:55;;;;;;;3.67;2.28;;;;;;;19.63;53.15;94428.66;2989352;39;20053;-69
2021/07/04 01:41:56;;;;;;;3.50;2.30;;;;;;;19.56;53.51;94429.78;2991956;39;20108;-68
2021/07/04 01:43:58;;;;;;;2.65;2.20;;;;;;;19.60;53.35;94420.34;2983247;39;20127;-69
2021/07/04 01:46:01;;;;;;;2.88;2.17;;;;;;;19.56;53.33;94417.31;2991419;39;20059;-69
2021/07/04 01:48:03;;;;;;;3.30;2.50;;;;;;;19.47;53.76;94421.28;2974986;39;20079;-83
2021/07/04 01:50:08;;;;;;;3.10;2.28;;;;;;;19.53;53.42;94416.91;2988517;39;20055;-82
2021/07/04 01:52:09;;;;;;;3.28;2.30;;;;;;;19.58;53.24;94417.88;2993739;39;20059;-80
2021/07/04 01:54:11;;;;;;;3.60;2.38;;;;;;;19.53;53.35;94414.25;2994117;39;20499;-80
2021/07/04 01:56:13;;;;;;;2.58;2.08;;;;;;;19.54;53.29;94411.41;2986836;39;20398;-82
2021/07/04 01:58:15;;;;;;;2.42;2.00;;;;;;;19.53;53.15;94412.44;2970409;39;20048;-80
2021/07/04 02:00:21;;;;;;;4.28;3.10;;;;;;;19.55;53.31;94415.69;2984173;39;20059;-81
2021/07/04 02:02:22;;;;;;;3.33;2.63;;;;;;;19.52;53.28;94410.00;2983326;39;20128;-80
2021/07/04 02:04:24;;;;;;;5.10;2.33;;;;;;;19.49;53.31;94408.59;2986269;39;20136;-80
2021/07/04 02:06:26;;;;;;;3.25;2.50;;;;;;;19.54;53.31;94414.06;2982468;39;20067;-81
2021/07/04 02:08:28;;;;;;;2.75;2.30;;;;;;;19.43;53.45;94412.13;2975408;39;20305;-80
2021/07/04 02:10:32;;;;;;;4.32;2.47;;;;;;;19.40;53.87;94418.72;2983695;39;20131;-80
2021/07/04 02:12:34;;;;;;;2.83;2.28;;;;;;;19.37;53.66;94413.00;2984110;39;20055;-80
2021/07/04 02:14:36;;;;;;;3.13;2.83;;;;;;;19.39;53.43;94413.59;2991803;39;20047;-80
2021/07/04 02:16:38;;;;;;;4.75;3.03;;;;;;;19.42;53.20;94415.81;2993290;39;20058;-81
2021/07/04 02:18:42;;;;;;;4.90;2.40;;;;;;;19.39;53.43;94418.91;2988330;39;20363;-81
2021/07/04 02:20:46;;;;;;;2.90;2.40;;;;;;;19.39;53.28;94416.25;2982956;39;20092;-71
2021/07/04 02:22:49;;;;;;;2.83;2.45;;;;;;;19.46;53.25;94414.34;2979967;39;20114;-71
2021/07/04 02:24:50;;;;;;;3.00;2.20;;;;;;;19.55;52.94;94415.69;2991509;39;20107;-70
2021/07/04 02:26:52;;;;;;;3.38;2.50;;;;;;;19.51;52.80;94417.16;2992091;39;20150;-70
2021/07/04 02:28:54;;;;;;;3.00;2.40;;;;;;;19.49;53.01;94421.88;2974707;39;20525;-69
2021/07/04 02:30:57;;;;;;;2.80;2.33;;;;;;;19.50;52.73;94412.06;2985653;39;20110;-70
2021/07/04 02:33:03;;;;;;;4.28;2.53;;;;;;;19.50;52.57;94412.88;2976116;39;20052;-68
2021/07/04 02:35:05;;;;;;;3.83;2.40;;;;;;;19.45;52.96;94420.69;2991040;39;20452;-70
2021/07/04 02:37:07;;;;;;;3.30;2.50;;;;;;;19.54;52.76;94423.88;2982552;39;20051;-70
2021/07/04 02:39:11;;;;;;;2.85;2.30;;;;;;;19.51;52.50;94418.97;2992377;39;20083;-69
2021/07/04 02:41:12;;;;;;;3.13;2.17;;;;;;;19.51;52.61;94424.31;2983162;39;20047;-69
2021/07/04 02:43:16;;;;;;;3.45;2.63;;;;;;;19.61;52.41;94425.41;2992550;39;20077;-69
2021/07/04 02:45:18;;;;;;;4.22;2.83;;;;;;;19.63;52.34;94419.88;2977173;39;20116;-68
2021/07/04 02:47:20;;;;;;;3.20;2.28;;;;;;;19.66;52.35;94432.75;2991088;39;20067;-69
2021/07/04 02:49:22;;;;;;;3.28;2.50;;;;;;;19.61;52.36;94430.72;2981815;39;20448;-69
2021/07/04 02:51:23;;;;;;;2.80;2.40;;;;;;;19.61;52.47;94424.59;2985636;39;20158;-69
2021/07/04 02:53:25;;;;;;;3.25;2.38;;;;;;;19.60;52.64;94428.31;2988944;39;20081;-70
2021/07/04 02:55:27;;;;;;;3.72;2.83;;;;;;;19.61;52.68;94430.72;2993677;39;20182;-70
2021/07/04 02:57:29;;;;;;;3.08;2.50;;;;;;;19.59;52.83;94427.47;2991685;39;20051;-70
2021/07/04 02:59:31;;;;;;;3.47;2.35;;;;;;;19.59;52.74;94422.16;2982981;39;20095;-69
2021/07/04 03:01:33;;;;;;;3.88;2.78;;;;;;;19.63;52.70;94419.88;2986552;39;20384;-70
2021/07/04 03:03:35;;;;;;;4.47;2.45;;;;;;;19.62;52.62;94421.72;2982563;39;20063;-70
2021/07/04 03:05:37;;;;;;;3.00;2.50;;;;;;;19.60;52.99;94423.00;2992012;39;20487;-70
2021/07/04 03:07:39;;;;;;;3.55;2.78;;;;;;;19.61;52.79;94422.75;2974286;39;20056;-71
2021/07/04 03:09:42;;;;;;;5.13;3.00;;;;;;;19.60;52.95;94425.66;2982450;39;20379;-70
2021/07/04 03:11:44;;;;;;;3.67;2.65;;;;;;;19.30;53.88;94428.22;2983036;39;20157;-80
2021/07/04 03:13:45;;;;;;;3.78;3.00;;;;;;;19.01;54.80;94426.03;2990206;39;20055;-80
2021/07/04 03:15:47;;;;;;;4.30;3.03;;;;;;;18.82;55.55;94432.28;2987068;39;20047;-81
2021/07/04 03:17:49;;;;;;;4.70;2.85;;;;;;;18.65;56.22;94431.16;2983533;39;20062;-80
2021/07/04 03:19:51;;;;;;;5.03;2.92;;;;;;;18.54;56.46;94432.66;2986955;39;20055;-82
2021/07/04 03:21:53;;;;;;;4.22;3.30;;;;;;;18.37;57.09;94432.41;2979106;39;20060;-80
2021/07/04 03:23:55;;;;;;;3.92;2.95;;;;;;;18.56;56.61;94433.28;2977583;39;20496;-80
2021/07/04 03:25:57;;;;;;;3.70;3.35;;;;;;;18.49;56.67;94440.47;2985408;39;20080;-80
2021/07/04 03:27:58;;;;;;;5.45;3.22;;;;;;;18.62;56.53;94437.72;2986233;39;20055;-79
2021/07/04 03:30:00;;;;;;;5.60;3.47;;;;;;;18.60;56.66;94445.09;2997778;39;20062;-78
2021/07/04 03:32:04;;;;;;;7.88;3.65;;;;;;;18.44;57.11;94445.63;2971310;39;20368;-68
2021/07/04 03:34:06;;;;;;;4.85;3.38;;;;;;;18.42;57.17;94449.28;2991477;39;20059;-69
2021/07/04 03:36:07;;;;;;;5.25;3.10;;;;;;;18.33;57.44;94449.75;2985389;39;20093;-69
2021/07/04 03:38:09;;;;;;;5.60;3.28;;;;;;;18.38;57.59;94448.06;2992290;39;20400;-69
2021/07/04 03:40:14;;;;;;;6.22;3.72;;;;;;;18.39;57.59;94446.22;2982311;39;20058;-69
2021/07/04 03:42:16;;;;;;;4.78;3.63;;;;;;;18.50;57.30;94447.38;2992062;39;20047;-68
2021/07/04 03:44:18;;;;;;;4.63;3.53;;;;;;;18.69;56.98;94448.28;2982334;39;20078;-70
2021/07/04 03:46:20;;;;;;;5.15;3.22;;;;;;;18.78;56.49;94447.03;2981518;39;20063;-70
2021/07/04 03:48:22;;;;;;;4.57;3.88;;;;;;;18.76;56.64;94449.88;2991727;39;20062;-69
2021/07/04 03:50:24;;;;;;;6.20;4.15;;;;;;;18.80;56.76;94452.94;2992070;39;20199;-69
2021/07/04 03:52:26;;;;;;;5.55;4.22;;;;;;;18.55;57.22;94459.00;2991730;39;20397;-69
2021/07/04 03:54:28;;;;;;;5.53;3.70;;;;;;;18.47;57.54;94455.78;2982544;39;20107;-68
2021/07/04 03:56:30;;;;;;;4.93;3.67;;;;;;;18.61;57.43;94452.03;2993437;39;20154;-70
2021/07/04 03:58:31;;;;;;;7.22;3.20;;;;;;;18.75;56.94;94458.03;2978775;39;20062;-69
2021/07/04 04:00:33;;;;;;;4.28;3.28;;;;;;;18.73;56.78;94454.78;2989743;39;20058;-69
2021/07/04 04:02:35;;;;;;;5.15;3.63;;;;;;;18.80;56.58;94464.38;2989230;39;20052;-71
2021/07/04 04:04:37;;;;;;;6.55;3.83;;;;;;;18.89;56.23;94459.59;2976339;39;20068;-70
2021/07/04 04:06:38;;;;;;;5.32;3.53;;;;;;;18.54;57.09;94461.84;2984850;39;20055;-69
2021/07/04 04:08:41;;;;;;;6.35;3.67;;;;;;;18.49;57.72;94459.84;2979027;39;20186;-69
2021/07/04 04:10:44;;;;;;;6.38;3.70;;;;;;;18.46;57.64;94460.28;2991973;39;20065;-69
2021/07/04 04:12:45;;;;;;;5.45;3.38;;;;;;;18.56;57.36;94462.47;2985669;39;20335;-67
2021/07/04 04:14:48;;;;;;;5.60;3.78;;;;;;;18.56;57.94;94455.34;2991545;39;20051;-70
2021/07/04 04:16:50;;;;;;;5.15;4.10;;;;;;;18.83;56.97;94458.63;2990686;39;20067;-69
2021/07/04 04:18:52;;;;;;;4.85;3.22;;;;;;;18.93;56.70;94459.97;2993547;39;20500;-69
2021/07/04 04:20:55;;;;;;;5.53;3.53;;;;;;;18.83;56.90;94460.47;2982501;39;20068;-70
2021/07/04 04:22:57;;;;;;;5.40;3.20;;;;;;;19.02;56.77;94453.38;2991961;39;20416;-70
2021/07/04 04:24:58;;;;;;;4.05;3.33;;;;;;;19.10;56.16;94449.63;2985972;39;20148;-70
2021/07/04 04:27:00;;;;;;;5.95;3.40;;;;;;;19.23;55.77;94458.28;2982075;39;20107;-69
2021/07/04 04:29:03;;;;;;;5.78;3.47;;;;;;;19.17;55.67;94458.38;2982436;39;20059;-70
2021/07/04 04:31:04;;;;;;;3.97;3.53;;;;;;;19.33;55.94;94459.63;2979357;39;20528;-69
2021/07/04 04:33:06;;;;;;;4.97;3.53;;;;;;;19.45;55.63;94468.50;2990885;39;20147;-69
2021/07/04 04:35:09;;;;;;;5.13;3.35;;;;;;;19.39;55.88;94464.88;2992303;39;20055;-69
2021/07/04 04:37:11;;;;;;;5.22;3.40;;;;;;;19.46;55.63;94462.16;2992116;39;20057;-80
2021/07/04 04:39:13;;;;;;;9.48;4.07;;;;;;;19.62;55.36;94469.56;2984084;39;20052;-82
2021/07/04 04:41:14;;;;;;;8.68;4.38;;;;;;;19.65;55.12;94469.09;2993333;39;20055;-69
2021/07/04 04:43:16;;;;;;;5.78;3.55;;;;;;;19.89;54.21;94468.47;2977897;39;20496;-70
2021/07/04 04:45:18;;;;;;;3.83;3.00;;;;;;;20.02;53.28;94468.31;2989893;39;20127;-69
2021/07/04 04:47:19;;;;;;;5.13;3.08;;;;;;;20.13;52.89;94469.41;2981316;39;20196;-70
2021/07/04 04:49:21;;;;;;;3.50;2.80;;;;;;;20.24;52.82;94466.00;2992065;39;20074;-68
2021/07/04 04:51:23;;;;;;;6.88;3.33;;;;;;;20.32;52.40;94455.03;2996357;39;20055;-69
2021/07/04 04:53:25;;;;;;;5.28;3.15;;;;;;;20.52;51.98;94465.44;2991683;39;20138;-69
2021/07/04 04:55:27;;;;;;;4.07;2.97;;;;;;;20.66;51.62;94458.91;2991401;39;20047;-70
2021/07/04 04:57:28;;;;;;;5.20;3.20;;;;;;;20.76;51.29;94466.34;2991266;39;20050;-69
2021/07/04 04:59:30;;;;;;;6.63;3.17;;;;;;;20.75;50.97;94461.25;2992307;39;20083;-69
2021/07/04 05:01:32;;;;;;;6.07;2.92;;;;;;;20.86;50.40;94463.09;2992127;39;20096;-70
2021/07/04 05:03:33;;;;;;;4.05;3.30;;;;;;;20.86;50.78;94463.09;2990087;39;20132;-69
2021/07/04 05:05:35;;;;;;;4.93;3.00;;;;;;;20.84;50.35;94467.84;2983173;39;20711;-71
2021/07/04 05:07:37;;;;;;;6.03;3.15;;;;;;;20.69;50.60;94468.28;2992982;39;20139;-69
2021/07/04 05:09:39;;;;;;;4.70;3.10;;;;;;;20.72;50.78;94467.84;2992551;39;20139;-69
2021/07/04 05:11:40;;;;;;;4.13;3.30;;;;;;;20.86;50.48;94468.44;2983338;39;20433;-69
2021/07/04 05:13:42;;;;;;;3.63;2.95;;;;;;;21.00;50.16;94458.41;2993046;39;20139;-70
2021/07/04 05:15:44;;;;;;;3.30;2.70;;;;;;;20.98;50.20;94466.59;2982574;39;20065;-69
2021/07/04 05:17:46;;;;;;;4.07;2.78;;;;;;;21.16;49.94;94478.22;2992406;39;20059;-70
2021/07/04 05:19:48;;;;;;;4.78;3.42;;;;;;;21.02;49.78;94475.75;2992392;39;20067;-70
2021/07/04 05:21:50;;;;;;;4.10;3.15;;;;;;;21.05;49.95;94479.81;2993034;39;20070;-70
2021/07/04 05:23:52;;;;;;;3.85;2.80;;;;;;;21.11;49.77;94473.56;2992875;39;20076;-69
2021/07/04 05:25:56;;;;;;;5.55;3.28;;;;;;;21.13;49.85;94484.00;2992828;39;20182;-70
2021/07/04 05:27:58;;;;;;;5.32;3.30;;;;;;;21.07;49.96;94475.06;2988968;39;20065;-68
2021/07/04 05:29:59;;;;;;;4.28;2.92;;;;;;;21.14;49.75;94481.09;2991287;39;20381;-70
2021/07/04 05:32:01;;;;;;;3.85;3.10;;;;;;;21.12;49.75;94491.16;2981321;39;20179;-70
2021/07/04 05:34:03;;;;;;;4.35;3.22;;;;;;;21.16;49.40;94488.88;2988840;39;20087;-70
2021/07/04 05:36:05;;;;;;;3.60;2.92;;;;;;;21.10;49.72;94485.28;2983154;39;20124;-69
2021/07/04 05:38:17;;;;;;;4.97;3.20;;;;;;;21.16;49.77;94484.34;2992866;39;20500;-71
2021/07/04 05:40:19;;;;;;;3.88;3.10;;;;;;;21.28;49.73;94489.69;2982749;39;20432;-70
2021/07/04 05:42:20;;;;;;;5.93;3.10;;;;;;;21.25;49.98;94493.63;2982086;39;20068;-70
2021/07/04 05:44:22;;;;;;;3.20;2.90;;;;;;;21.26;49.50;94489.13;2998682;39;20063;-70
2021/07/04 05:46:24;;;;;;;4.93;3.17;;;;;;;21.32;49.52;94495.38;2991784;39;20088;-70
2021/07/04 05:48:27;;;;;;;4.57;3.20;;;;;;;21.15;50.05;94485.41;2992100;39;20054;-69
2021/07/04 05:50:29;;;;;;;3.88;2.85;;;;;;;21.10;49.92;94493.28;2975199;39;20183;-70
2021/07/04 05:52:31;;;;;;;3.72;3.22;;;;;;;21.40;49.62;94492.34;2981967;39;20044;-70
2021/07/04 05:54:32;;;;;;;4.10;3.22;;;;;;;21.46;49.59;94491.47;2986999;39;20146;-70
2021/07/04 05:56:34;;;;;;;4.22;3.10;;;;;;;21.59;49.49;94488.56;2989912;39;20051;-70
2021/07/04 05:58:36;;;;;;;4.90;3.38;;;;;;;21.64;49.08;94496.69;2989730;39;20404;-70
2021/07/04 06:00:38;;;;;;;4.88;3.30;;;;;;;21.56;49.12;94489.03;2976776;39;20083;-69
2021/07/04 06:02:41;;;;;;;4.30;3.10;;;;;;;21.62;48.70;94495.31;2986618;39;20063;-68
2021/07/04 06:04:43;;;;;;;5.55;3.30;;;;;;;21.59;48.95;94488.56;2983010;39;20340;-70
2021/07/04 06:06:46;;;;;;;3.60;3.05;;;;;;;21.79;48.77;94482.88;2992743;39;20067;-70
2021/07/04 06:08:47;;;;;;;4.47;2.97;;;;;;;21.81;48.74;94495.97;2992776;39;20496;-69
2021/07/04 06:10:51;;;;;;;4.88;3.22;;;;;;;21.64;48.90;94479.88;2982780;39;20151;-70
2021/07/04 06:12:53;;;;;;;5.57;3.33;;;;;;;21.84;48.45;94485.66;2986615;39;20349;-70
2021/07/04 06:14:55;;;;;;;6.43;3.60;;;;;;;21.82;48.59;94489.59;2991005;39;20491;-69
2021/07/04 06:17:00;;;;;;;4.32;3.17;;;;;;;21.72;48.54;94486.72;2986064;39;20167;-68
2021/07/04 06:19:02;;;;;;;5.20;3.35;;;;;;;21.71;48.84;94491.22;2992524;39;20077;-72
2021/07/04 06:21:07;;;;;;;5.28;3.60;;;;;;;21.82;48.21;94492.25;2992900;39;20424;-69
2021/07/04 06:23:10;;;;;;;6.18;3.30;;;;;;;21.93;48.06;94483.44;2993767;39;20079;-69
2021/07/04 06:25:14;;;;;;;4.43;3.50;;;;;;;21.92;48.31;94487.16;2989882;39;20047;-69
2021/07/04 06:27:15;;;;;;;5.32;3.60;;;;;;;21.80;48.92;94487.16;2974905;39;20055;-70
2021/07/04 06:29:17;;;;;;;10.73;4.47;;;;;;;21.94;48.16;94485.06;2990147;39;20187;-70
2021/07/04 06:31:19;;;;;;;6.38;3.55;;;;;;;21.98;47.71;94480.84;2991436;39;20075;-72
2021/07/04 06:33:21;;;;;;;4.57;3.38;;;;;;;21.93;47.72;94483.44;2986821;39;20070;-73
2021/07/04 06:35:23;;;;;;;4.68;3.50;;;;;;;21.90;48.54;94473.25;2974667;39;20052;-70
2021/07/04 06:37:24;;;;;;;6.20;3.85;;;;;;;22.11;48.09;94479.78;2992394;39;20062;-70
2021/07/04 06:39:26;;;;;;;4.53;3.42;;;;;;;21.56;48.91;94483.72;2990082;39;20379;-69
2021/07/04 06:41:28;;;;;;;5.35;3.67;;;;;;;21.53;49.43;94475.34;2989718;39;20053;-70
2021/07/04 06:43:29;;;;;;;4.22;3.72;;;;;;;21.27;49.09;94478.22;2968092;39;20052;-69
2021/07/04 06:45:31;;;;;;;4.95;3.45;;;;;;;21.30;49.41;94478.81;2991540;39;20368;-70
2021/07/04 06:47:33;;;;;;;6.00;3.50;;;;;;;21.71;48.56;94472.56;2981544;39;20046;-69
2021/07/04 06:49:35;;;;;;;5.93;3.55;;;;;;;21.85;48.30;94476.63;2992268;39;20074;-70
2021/07/04 06:51:37;;;;;;;6.22;3.63;;;;;;;22.05;48.07;94483.41;2996010;39;20047;-69
2021/07/04 06:53:39;;;;;;;4.22;3.50;;;;;;;21.74;48.40;94482.75;2992552;39;20154;-69
2021/07/04 06:55:40;;;;;;;5.15;3.50;;;;;;;21.48;49.38;94468.06;2996154;39;20058;-70
2021/07/04 06:57:42;;;;;;;4.38;3.45;;;;;;;21.64;49.34;94472.69;2992820;39;20051;-84
2021/07/04 06:59:44;;;;;;;5.75;3.80;;;;;;;21.79;48.11;94466.06;2989099;39;20436;-83
2021/07/04 07:01:46;;;;;;;7.38;3.80;;;;;;;21.49;48.69;94467.03;2993549;39;20109;-84
2021/07/04 07:03:48;;;;;;;4.20;3.35;;;;;;;21.78;48.70;94470.56;2984267;39;20102;-83
2021/07/04 07:05:49;;;;;;;5.10;3.40;;;;;;;22.15;47.33;94453.47;2994940;39;20059;-82
2021/07/04 07:07:51;;;;;;;4.88;3.67;;;;;;;22.26;47.26;94463.31;2993704;39;20120;-84
2021/07/04 07:09:53;;;;;;;5.00;3.65;;;;;;;22.32;47.41;94458.88;2993394;39;20075;-85
2021/07/04 07:11:55;;;;;;;6.18;3.45;;;;;;;22.37;47.70;94457.13;2995373;39;20082;-83
2021/07/04 07:13:56;;;;;;;4.43;3.60;;;;;;;22.22;47.45;94460.31;2996447;39;20296;-83
2021/07/04 07:15:58;;;;;;;5.15;3.67;;;;;;;22.27;47.53;94452.41;2983620;39;20435;-83
2021/07/04 07:18:00;;;;;;;4.03;3.10;;;;;;;22.32;46.68;94464.22;2985928;39;20059;-82
2021/07/04 07:20:04;;;;;;;5.10;3.67;;;;;;;22.46;46.67;94455.69;2985196;39;20059;-82
2021/07/04 07:22:06;;;;;;;7.38;3.78;;;;;;;22.59;46.68;94457.25;2983059;39;20066;-85
2021/07/04 07:24:08;;;;;;;4.25;3.20;;;;;;;22.53;46.59;94452.06;2985723;39;20078;-83
2021/07/04 07:26:10;;;;;;;4.80;3.53;;;;;;;22.71;45.99;94446.50;2984577;39;20092;-84
2021/07/04 07:28:12;;;;;;;4.35;3.25;;;;;;;22.83;46.00;94439.25;2991037;39;20059;-83
2021/07/04 07:30:14;;;;;;;5.63;3.90;;;;;;;23.00;45.58;94441.97;2983694;39;20073;-83
2021/07/04 07:32:16;;;;;;;8.65;4.40;;;;;;;23.16;45.60;94431.50;2985915;39;20115;-83
2021/07/04 07:34:18;;;;;;;6.30;3.92;;;;;;;22.93;45.66;94445.81;2985352;39;20682;-85
2021/07/04 07:36:20;;;;;;;4.97;3.40;;;;;;;22.84;45.59;94450.72;2991935;39;20047;-84
2021/07/04 07:38:21;;;;;;;4.53;3.38;;;;;;;23.03;44.79;94440.66;2985330;39;20231;-85
2021/07/04 07:40:23;;;;;;;5.13;3.53;;;;;;;23.22;44.00;94438.56;2984177;39;20117;-70
2021/07/04 07:42:25;;;;;;;5.38;3.42;;;;;;;23.26;44.28;94431.69;2984107;39;20059;-82
2021/07/04 07:44:27;;;;;;;4.40;3.40;;;;;;;23.35;43.64;94424.84;2984030;39;20073;-85
2021/07/04 07:46:28;;;;;;;5.40;3.28;;;;;;;23.49;43.56;94442.19;2982004;39;20052;-83
2021/07/04 07:48:30;;;;;;;6.03;3.15;;;;;;;23.50;42.88;94429.59;2976530;39;20404;-80
2021/07/04 07:50:32;;;;;;;6.60;3.67;;;;;;;23.43;42.05;94434.31;2983701;39;20051;-83
2021/07/04 07:52:34;;;;;;;3.58;3.05;;;;;;;23.73;41.89;94430.47;2984242;39;20152;-83
2021/07/04 07:54:36;;;;;;;5.85;3.65;;;;;;;23.29;42.85;94436.53;2979944;39;20289;-86
2021/07/04 07:56:38;;;;;;;4.00;3.28;;;;;;;23.06;43.51;94427.63;2984502;39;20355;-84
2021/07/04 07:58:43;;;;;;;4.68;2.60;;;;;;;23.07;43.82;94433.78;2980749;39;20148;-85
2021/07/04 08:00:45;;;;;;;4.60;3.50;;;;;;;22.93;43.95;94430.59;2977879;39;20064;-84
2021/07/04 08:02:47;;;;;;;5.88;3.60;;;;;;;23.24;43.60;94431.91;2980742;39;20135;-69
2021/07/04 08:04:48;;;;;;;8.63;3.80;;;;;;;23.23;43.82;94422.28;2983832;39;20055;-69
2021/07/04 08:06:50;;;;;;;4.05;3.10;;;;;;;23.62;43.82;94427.66;2982985;39;20071;-70
2021/07/04 08:08:52;;;;;;;7.13;3.50;;;;;;;23.81;42.91;94427.38;2979209;39;20052;-71
2021/07/04 08:10:54;;;;;;;8.70;3.40;;;;;;;23.91;42.30;94424.81;2975043;39;20144;-72
2021/07/04 08:12:57;;;;;;;5.10;3.42;;;;;;;24.07;41.68;94441.88;2982049;39;20047;-71
2021/07/04 08:15:03;;;;;;;10.55;3.30;;;;;;;23.57;40.94;94421.41;2979912;39;20431;-69
2021/07/04 08:17:05;;;;;;;5.93;3.38;;;;;;;23.55;41.00;94418.97;2986572;39;20059;-69
2021/07/04 08:19:07;;;;;;;4.82;3.38;;;;;;;23.92;41.66;94415.75;2987559;39;20075;-70
2021/07/04 08:21:09;;;;;;;6.18;3.38;;;;;;;24.28;41.17;94416.16;2985154;39;20071;-84
2021/07/04 08:23:11;;;;;;;8.05;3.58;;;;;;;24.21;40.40;94412.88;2991594;39;20488;-84
2021/07/04 08:25:14;;;;;;;6.53;3.55;;;;;;;23.44;41.22;94423.38;2993071;39;20099;-83
2021/07/04 08:27:15;;;;;;;6.55;3.58;;;;;;;23.78;41.31;94423.31;2983719;39;20062;-83
2021/07/04 08:29:17;;;;;;;4.28;3.42;;;;;;;23.94;41.03;94413.66;2993265;39;20082;-83
2021/07/04 08:31:19;;;;;;;5.43;3.10;;;;;;;23.92;40.85;94407.72;2987511;39;20043;-84
2021/07/04 08:33:21;;;;;;;10.38;4.18;;;;;;;23.95;41.57;94417.94;2980839;39;20436;-81
2021/07/04 08:35:22;;;;;;;10.55;3.08;;;;;;;24.21;41.10;94420.91;2992327;39;20415;-83
2021/07/04 08:37:24;;;;;;;4.47;3.60;;;;;;;23.69;40.43;94420.25;2986047;39;20147;-85
2021/07/04 08:39:26;;;;;;;4.93;3.72;;;;;;;23.63;40.62;94420.44;2985172;39;20077;-85
2021/07/04 08:41:28;;;;;;;4.43;2.90;;;;;;;23.91;40.09;94411.44;2984858;39;20158;-84
2021/07/04 08:43:32;;;;;;;5.55;3.20;;;;;;;23.73;39.66;94411.75;2977884;39;20079;-86
2021/07/04 08:45:38;;;;;;;4.78;3.53;;;;;;;23.98;38.58;94412.06;2984460;39;20085;-83
2021/07/04 08:47:40;;;;;;;5.07;3.55;;;;;;;23.92;39.64;94421.09;2985709;39;20084;-84
2021/07/04 08:49:44;;;;;;;5.97;3.55;;;;;;;23.54;40.31;94414.69;2989387;39;20079;-70
2021/07/04 08:51:47;;;;;;;10.05;3.22;;;;;;;23.65;39.69;94413.78;2983164;39;20420;-69
2021/07/04 08:53:49;;;;;;;7.43;2.42;;;;;;;23.98;38.21;94411.25;2992254;39;20308;-70
2021/07/04 08:55:51;;;;;;;3.13;2.15;;;;;;;24.07;38.19;94399.88;2997362;39;20417;-69
2021/07/04 08:57:56;;;;;;;2.45;2.10;;;;;;;24.36;37.78;94399.63;2983219;39;20092;-71
2021/07/04 08:59:58;;;;;;;4.80;2.47;;;;;;;24.07;38.08;94399.88;2988095;39;20094;-69
2021/07/04 09:02:00;;;;;;;5.70;2.85;;;;;;;24.22;38.00;94395.75;2991630;39;20294;-68
2021/07/04 09:04:11;;;;;;;3.33;2.25;;;;;;;24.62;36.65;94394.56;2993065;39;20684;-69
2021/07/04 09:06:14;;;;;;;3.75;2.15;;;;;;;24.75;35.87;94398.69;2991801;39;20051;-70
2021/07/04 09:08:19;;;;;;;3.63;2.20;;;;;;;24.78;34.83;94396.31;2983227;39;20480;-71
2021/07/04 09:10:22;;;;;;;2.75;2.08;;;;;;;24.58;35.50;94390.78;2992628;39;20107;-70
2021/07/04 09:12:38;;;;;;;4.05;2.40;;;;;;;24.84;35.60;94397.97;2998415;39;20053;-82
2021/07/04 09:14:45;;;;;;;11.73;3.33;;;;;;;24.54;37.06;94419.91;2982129;39;20056;-81
2021/07/04 09:17:05;;;;;;;2.90;2.13;;;;;;;24.39;34.72;94406.34;2997307;39;20079;-82
2021/07/04 09:19:11;;;;;;;11.40;2.70;;;;;;;24.34;35.77;94401.75;2978886;39;20052;-82
2021/07/04 09:21:23;;;;;;;5.05;2.35;;;;;;;24.74;35.01;94389.88;2988986;39;20043;-83
2021/07/04 09:23:36;;;;;;;3.60;2.45;;;;;;;24.99;35.04;94404.50;2987854;39;20047;-83
2021/07/04 09:25:39;;;;;;;3.60;2.85;;;;;;;24.68;35.82;94388.19;2992939;39;20174;-84
2021/07/04 09:27:44;;;;;;;3.80;2.42;;;;;;;24.60;35.92;94402.84;2984620;39;20116;-83
2021/07/04 09:29:49;;;;;;;4.55;2.33;;;;;;;25.00;34.74;94393.56;2984802;39;20293;-84
2021/07/04 09:31:51;;;;;;;16.35;5.63;;;;;;;24.72;35.31;94387.44;2993435;39;20059;-81
2021/07/04 09:34:02;;;;;;;4.80;2.55;;;;;;;24.49;36.19;94401.13;2984453;39;20059;-83
2021/07/04 09:36:09;;;;;;;3.60;2.45;;;;;;;24.22;35.61;94391.22;2994509;39;20059;-83
2021/07/04 09:38:15;;;;;;;7.00;2.40;;;;;;;24.18;36.02;94381.25;2991238;39;20448;-82